Douglas, WY (82633)

1:18 AM MST on December 03, 2016 (GMT -0700)
North Laramie Foothills | | Change Station

Elev 5272 ft 42.72 °N, 105.49 °W | Updated 2 minutes ago

Clear
Clear
19.8 °F
Feels Like 20 °F
N
1.0
Wind Variable Wind from North
Gusts 3.0 mph

Today
High -- | Low -- °F
--% Chance of Precip.
Yesterday
High -- | Low -- °F
Precip. -- in
Pressure 30.18 in
Visibility 10.0 miles
Clouds Clear
Windchill 20 °F
Dew Point 12 °F
Humidity 73%
Rainfall 0.00 in
Snow Depth Not available.
7:14 AM 4:28 PM
Waxing Crescent, 13% visible
METAR KDGW 030753Z AUTO 19004KT 10SM CLR M12/M13 A3004 RMK AO2 SLP219 I1000 T11171128
Pressure 30.18 in
Visibility 10.0 miles
Clouds Clear
Windchill 20 °F
Dew Point 12 °F
Humidity 73%
Rainfall 0.00 in
Snow Depth Not available.
7:14 AM 4:28 PM
Waxing Crescent, 13% visible
METAR KDGW 030753Z AUTO 19004KT 10SM CLR M12/M13 A3004 RMK AO2 SLP219 I1000 T11171128

10-Day Weather Forecast

Almanac

Astronomy

Dec. 03, 2016 Rise Set
Actual Time
Civil Twilight
Nautical Twilight
Astronomical Twilight
Moon
Length of Visible Light
Length of Day
Tomorrow will be .
, % of the Moon is Illuminated

Today's Extremes

State Highs State Lows

Community

WunderPhotos

Upload Photos

1,955,432 photos uploaded!

WunderBlog® & News

Nearby

Air Quality

  Air Quality AQ Index Pollutant
Not available.

Snow Depth

Station Depth Elevation

Earthquake Activity

City Distance Mag. Time & Date
Minimum magnitude displayed is 2.5.

Coastal Water Temperatures

Place Temperature

Stations

Nearby Weather Stations

Station Location Temp. Windchill Dew Point Humidity Wind Precip. Elev Updated Type
                   

Watches & Warnings

There are currently no watches in effect.